Time;durP1;ratioP1;P1;durP2;ratioP2;P2;SDS_P1;SDS_P2;PMS_P1;PMS_P2;Temp;Humidity;BMP_temperature;BMP_pressure;BME280_temperature;BME280_humidity;BME280_pressure;Samples;Min_cycle;Max_cycle;Signal;HPM_P1;HPM_P2
2021/04/09 05:37:07;;;;;;;;;;;;;;;;;;5763855;23;20005;-94
2021/04/09 05:39:53;;;;;;;;;;;;;;;;;;4981558;28;19961;-94
2021/04/09 05:42:19;;;;;;;;;;;;;;;;;;4947466;28;19918;-94
2021/04/09 05:44:45;;;;;;;;;;;;;;;;;;4962793;28;19929;-94
2021/04/09 05:47:11;;;;;;;;;;;;;;;;;;4946909;28;19968;-94
2021/04/09 05:49:37;;;;;;;;;;;;;;;;;;4956470;28;20032;-94
2021/04/09 05:52:04;;;;;;;;;;;;;;;;;;4947506;28;19913;-93
2021/04/09 05:54:30;;;;;;;;;;;;;;;;;;4943342;28;19918;-92
2021/04/09 05:56:56;;;;;;;;;;;;;;;;;;4956716;28;20052;-92
2021/04/09 05:59:22;;;;;;;;;;;;;;;;;;4958614;28;19918;-91
2021/04/09 06:01:48;;;;;;;;;;;;;;;;;;4946463;28;19933;-92
2021/04/09 06:04:14;;;;;;;;;;;;;;;;;;4940204;28;19922;-88
2021/04/09 06:06:40;;;;;;;;;;;;;;;;;;4955726;28;20366;-90
2021/04/09 06:09:06;;;;;;;;;;;;;;;;;;4943816;28;19914;-90
2021/04/09 06:11:32;;;;;;;;;;;;;;;;;;4945327;28;20020;-91
2021/04/09 06:13:59;;;;;;;;;;;;;;;;;;4946793;28;19922;-91
2021/04/09 06:16:25;;;;;;;;;;;;;;;;;;4943233;28;19918;-91
2021/04/09 06:18:51;;;;;;;;;;;;;;;;;;4961079;28;19918;-91
2021/04/09 06:21:17;;;;;;;;;;;;;;;;;;4940651;28;19929;-91
2021/04/09 06:23:43;;;;;;;;;;;;;;;;;;4958840;28;19988;-91
2021/04/09 06:26:09;;;;;;;;;;;;;;;;;;4944082;28;19945;-91
2021/04/09 06:28:37;;;;;;;;;;;;;;;;;;4938887;28;19926;-91
2021/04/09 06:31:05;;;;;;;;;;;;;;;;;;4944212;28;20012;-91
2021/04/09 06:33:31;;;;;;;;;;;;;;;;;;4959348;28;20659;-91
2021/04/09 06:35:57;;;;;;;;;;;;;;;;;;4959806;28;19929;-91
2021/04/09 06:38:23;;;;;;;;;;;;;;;;;;4940952;28;19929;-91
2021/04/09 06:40:49;;;;;;;;;;;;;;;;;;4953476;28;19969;-91
2021/04/09 06:43:15;;;;;;;;;;;;;;;;;;4944122;28;19918;-91
2021/04/09 06:45:41;;;;;;;;;;;;;;;;;;4959328;28;19921;-92
2021/04/09 06:48:07;;;;;;;;;;;;;;;;;;4943223;28;19973;-90
2021/04/09 06:50:33;;;;;;;;;;;;;;;;;;4944232;28;19977;-91
2021/04/09 06:53:00;;;;;;;;;;;;;;;;;;4936945;28;19929;-91
2021/04/09 06:55:26;;;;;;;;;;;;;;;;;;4940581;28;19929;-91
2021/04/09 06:57:52;;;;;;;;;;;;;;;;;;4951108;28;19965;-90
2021/04/09 07:00:26;;;;;;;;;;;;;;;;;;4942627;28;19978;-90
2021/04/09 07:02:58;;;;;;;;;;;;;;;;;;4937068;28;19969;-91
2021/04/09 07:05:26;;;;;;;;;;;;;;;;;;4949284;28;19972;-91
2021/04/09 07:07:55;;;;;;;;;;;;;;;;;;4939216;28;20024;-91
2021/04/09 07:10:24;;;;;;;;;;;;;;;;;;4947835;28;19926;-91
2021/04/09 07:12:55;;;;;;;;;;;;;;;;;;4953661;28;19922;-91
2021/04/09 07:15:22;;;;;;;;;;;;;;;;;;4936011;28;19930;-91
2021/04/09 07:17:48;;;;;;;;;;;;;;;;;;4941453;28;19949;-91
2021/04/09 07:20:16;;;;;;;;;;;;;;;;;;4942851;28;19922;-91
2021/04/09 07:22:46;;;;;;;;;;;;;;;;;;4954108;28;20009;-91
2021/04/09 07:25:12;;;;;;;;;;;;;;;;;;4938230;28;20484;-89
2021/04/09 07:30:34;;;;;;;;;;;;;;;;;;4955041;28;19969;-91
2021/04/09 07:33:00;;;;;;;;;;;;;;;;;;4940867;28;19922;-91
2021/04/09 07:35:28;;;;;;;;;;;;;;;;;;4940047;28;20510;-90
2021/04/09 07:38:00;;;;;;;;;;;;;;;;;;4938861;28;19928;-91
2021/04/09 08:45:24;;;;;;;;;;;;;;;;;;5016705;28;19921;-92
2021/04/09 08:47:50;;;;;;;;;;;;;;;;;;5000791;28;19928;-92
2021/04/09 08:50:16;;;;;;;;;;;;;;;;;;5001149;28;20004;-92
2021/04/09 08:58:25;;;;;;;;;;;;;;;;;;4993184;28;20050;-94
2021/04/09 09:06:44;;;;;;;;;;;;;;;;;;5016881;28;19923;-93
2021/04/09 09:09:19;;;;;;;;;;;;;;;;;;5012780;28;19925;-91
2021/04/09 09:11:52;;;;;;;;;;;;;;;;;;4999135;28;19929;-91
2021/04/09 09:14:20;;;;;;;;;;;;;;;;;;5020918;28;20008;-92
2021/04/09 09:16:52;;;;;;;;;;;;;;;;;;4999566;28;19918;-92
2021/04/09 09:22:20;;;;;;;;;;;;;;;;;;;;;
2021/04/09 09:24:56;;;;;;;;;;;;;;;;;;5016107;28;19919;-93
2021/04/09 09:27:22;;;;;;;;;;;;;;;;;;4995543;28;20008;-93
2021/04/09 09:29:51;;;;;;;;;;;;;;;;;;4997328;28;20484;-94
2021/04/09 09:32:31;;;;;;;;;;;;;;;;;;4994948;28;19928;-93
2021/04/09 09:34:59;;;;;;;;;;;;;;;;;;4988174;28;19917;-94
2021/04/09 09:37:28;;;;;;;;;;;;;;;;;;4989586;28;19926;-94
2021/04/09 09:39:57;;;;;;;;;;;;;;;;;;4979092;28;19924;-93
2021/04/09 09:42:33;;;;;;;;;;;;;;;;;;4977041;28;19935;-92
2021/04/09 09:45:18;;;;;;;;;;;;;;;;;;4982590;28;19937;-93
2021/04/09 09:47:47;;;;;;;;;;;;;;;;;;4978940;28;20399;-94
2021/04/09 09:53:09;;;;;;;;;;;;;;;;;;5004951;28;19924;-94
2021/04/09 09:55:55;;;;;;;;;;;;;;;;;;4983918;28;19943;-93
2021/04/09 09:58:33;;;;;;;;;;;;;;;;;;4984048;28;19922;-93
2021/04/09 10:01:01;;;;;;;;;;;;;;;;;;4984949;28;19913;-93
2021/04/09 10:03:36;;;;;;;;;;;;;;;;;;4983009;28;19913;-94
2021/04/09 10:06:31;;;;;;;;;;;;;;;;;;;;;
2021/04/09 10:08:57;;;;;;;;;;;;;;;;;;5002885;28;19924;-94
2021/04/09 10:11:26;;;;;;;;;;;;;;;;;;4985587;28;19921;-93
2021/04/09 10:13:59;;;;;;;;;;;;;;;;;;4985962;28;19921;-92
2021/04/09 10:16:28;;;;;;;;;;;;;;;;;;4985829;28;21239;-95
2021/04/09 10:19:01;;;;;;;;;;;;;;;;;;4984110;28;19918;-93
2021/04/09 10:21:40;;;;;;;;;;;;;;;;;;4983068;28;19929;-92
2021/04/09 10:38:21;;;;;;;;;;;;;;;;;;4990401;28;19918;-95
2021/04/09 10:43:55;;;;;;;;;;;;;;;;;;4956681;28;19925;-93
2021/04/09 10:46:41;;;;;;;;;;;;;;;;;;;;;
2021/04/09 10:49:14;;;;;;;;;;;;;;;;;;4995059;28;19923;-94
2021/04/09 10:51:47;;;;;;;;;;;;;;;;;;4983643;28;19922;-93
2021/04/09 10:57:10;;;;;;;;;;;;;;;;;;4994512;28;19936;-92
2021/04/09 11:00:19;;;;;;;;;;;;;;;;;;;;;
2021/04/09 11:02:34;;;;;;;;;;;;;;;;;;4987790;28;19917;-93
2021/04/09 11:08:12;;;;;;;;;;;;;;;;;;;;;
2021/04/09 11:16:22;;;;;;;;;;;;;;;;;;5006887;28;19921;-91
2021/04/09 11:18:57;;;;;;;;;;;;;;;;;;4997620;28;20006;-92
2021/04/09 11:21:40;;;;;;;;;;;;;;;;;;4978192;28;19917;-94
2021/04/09 11:24:16;;;;;;;;;;;;;;;;;;4996458;28;20008;-93
2021/04/09 11:46:15;;;;;;;;;;;;;;;;;;5153914;23;20334;-94
2021/04/09 11:49:04;;;;;;;;;;;;;;;;;;4970499;28;19926;-94
2021/04/09 12:31:29;;;;;;;;;;;;;;;;;;4940492;29;19954;-96
2021/04/09 12:39:45;;;;;;;;;;;;;;;;;;4966992;28;19951;-96
2021/04/09 12:47:54;;;;;;;;;;;;;;;;;;4927141;29;19926;-96
2021/04/09 13:02:24;;;;;;;;;;;;;;;;;;4922049;29;21490;-96
2021/04/09 13:04:50;;;;;;;;;;;;;;;;;;4949216;28;19923;-96
2021/04/09 13:07:25;;;;;;;;;;;;;;;;;;4981822;28;20027;-96
2021/04/09 15:14:19;;;;;;;;;;;;;;;;;;4975158;28;19934;-96
2021/04/09 15:17:01;;;;;;;;;;;;;;;;;;4981795;28;19917;-95
2021/04/09 15:22:32;;;;;;;;;;;;;;;;;;4974285;28;19922;-91
2021/04/09 15:25:16;;;;;;;;;;;;;;;;;;4968904;28;19928;-94
2021/04/09 15:31:07;;;;;;;;;;;;;;;;;;4970635;28;19966;-94
2021/04/09 15:33:38;;;;;;;;;;;;;;;;;;4954015;28;19942;-93
2021/04/09 15:39:06;;;;;;;;;;;;;;;;;;;;;
2021/04/09 15:41:42;;;;;;;;;;;;;;;;;;4958795;28;19928;-91
2021/04/09 15:44:32;;;;;;;;;;;;;;;;;;4952726;28;19969;-94
2021/04/09 15:55:47;;;;;;;;;;;;;;;;;;4815112;29;20401;-91
2021/04/09 15:58:21;;;;;;;;;;;;;;;;;;4961978;28;19929;-93
2021/04/09 16:03:55;;;;;;;;;;;;;;;;;;4891723;28;20015;-93
2021/04/09 16:39:16;;;;;;;;;;;;;;;;;;4994708;28;19929;-95
2021/04/09 16:41:46;;;;;;;;;;;;;;;;;;4975343;28;20000;-95
2021/04/09 16:47:26;;;;;;;;;;;;;;;;;;4999441;28;20210;-95
2021/04/09 16:52:43;;;;;;;;;;;;;;;;;;4979958;28;20138;-94
2021/04/09 17:06:37;;;;;;;;;;;;;;;;;;4977466;28;20024;-94
2021/04/09 17:34:59;;;;;;;;;;;;;;;;;;4999819;28;20025;-95
2021/04/09 17:37:30;;;;;;;;;;;;;;;;;;4989062;28;19926;-94
2021/04/09 17:45:38;;;;;;;;;;;;;;;;;;4979006;28;22453;-94
2021/04/09 17:48:11;;;;;;;;;;;;;;;;;;4975517;28;19966;-95
2021/04/09 17:53:35;;;;;;;;;;;;;;;;;;4987683;28;20408;-96
2021/04/09 17:56:12;;;;;;;;;;;;;;;;;;4974053;28;19902;-96
2021/04/09 18:16:10;;;;;;;;;;;;;;;;;;;;;
2021/04/09 19:27:46;;;;;;;;;;;;;;;;;;5817277;23;19936;-89
